Terminal Aerodrome Forecast
Issued by NWS

Home | Current Version | Previous Version | Text Only | Print | Product List | Glossary Off
Versions: 1 2 3 4 5 6 7 8 9 10 11 12 13

000
FTUS43 KABR 251734
TAFMBG
TAF
KMBG 251734Z 2518/2618 06010KT P6SM -RA SCT014 OVC060
     FM252300 03009KT P6SM SCT025 BKN040
     FM260200 VRB03KT P6SM OVC025
      TEMPO 2609/2613 3SM BR OVC020
     FM261300 32007KT P6SM BKN020=

USA.gov is the U.S. government's official web portal to all federal, state and local government web resources and services.